Time;durP1;ratioP1;P1;durP2;ratioP2;P2;SDS_P1;SDS_P2;PMS_P1;PMS_P2;Temp;Humidity;BMP_temperature;BMP_pressure;BME280_temperature;BME280_humidity;BME280_pressure;Samples;Min_cycle;Max_cycle;Signal;HPM_P1;HPM_P2
2021/10/05 00:01:33;;;;;;;27.35;14.00;;;;;;;8.22;82.94;144278.47;1822920;77;22159;-60
2021/10/05 00:04:33;;;;;;;26.70;15.50;;;;;;;8.19;83.04;144270.92;1834147;77;22164;-62
2021/10/05 00:07:08;;;;;;;24.98;14.65;;;;;;;8.16;83.03;144263.42;1853479;77;22557;-58
2021/10/05 00:09:45;;;;;;;25.23;15.83;;;;;;;8.14;83.03;144258.41;1820113;78;22216;-61
2021/10/05 00:12:20;;;;;;;29.18;18.15;;;;;;;8.08;83.23;144243.41;1802804;77;28116;-61
2021/10/05 00:14:56;;;;;;;27.98;16.52;;;;;;;8.07;83.10;144240.91;1817435;77;22153;-58
2021/10/05 00:17:31;;;;;;;27.82;18.57;;;;;;;7.98;83.03;144220.84;1837748;77;27998;-59
2021/10/05 00:20:10;;;;;;;24.20;16.57;;;;;;;7.98;83.06;144219.61;1831955;77;22191;-58
2021/10/05 00:22:44;;;;;;;27.10;17.32;;;;;;;7.91;83.17;144203.38;1835953;77;22545;-58
2021/10/05 00:25:19;;;;;;;29.32;17.55;;;;;;;7.82;83.45;144180.83;1818902;77;22246;-59
2021/10/05 00:27:54;;;;;;;28.85;17.55;;;;;;;7.73;83.69;144158.28;1827878;77;22577;-58
2021/10/05 00:30:29;;;;;;;32.65;18.75;;;;;;;7.66;83.91;144140.75;1825760;77;22191;-63
2021/10/05 00:33:04;;;;;;;32.90;18.12;;;;;;;7.60;84.39;144128.25;1853503;77;22562;-62
2021/10/05 00:35:39;;;;;;;29.82;18.05;;;;;;;7.55;84.41;144114.50;1818700;77;22202;-66
2021/10/05 00:38:14;;;;;;;26.02;18.15;;;;;;;7.49;84.65;144100.75;1821961;77;22145;-63
2021/10/05 00:40:49;;;;;;;31.68;19.00;;;;;;;7.44;84.87;144088.23;1835006;77;22128;-64
2021/10/05 00:43:24;;;;;;;30.52;16.90;;;;;;;7.37;85.05;144071.95;1828313;77;22248;-60
2021/10/05 00:45:59;;;;;;;29.52;18.10;;;;;;;7.31;85.26;144056.95;1824934;77;22159;-65
2021/10/05 00:48:34;;;;;;;26.42;17.62;;;;;;;7.26;85.55;144043.20;1833891;77;22152;-57
2021/10/05 00:51:10;;;;;;;29.15;17.73;;;;;;;7.22;85.91;144033.19;1825123;77;22171;-58
2021/10/05 00:54:05;;;;;;;28.52;18.55;;;;;;;7.15;86.22;144018.19;1817723;77;28005;-59
2021/10/05 00:56:39;;;;;;;27.17;17.30;;;;;;;7.15;87.12;144016.95;1831453;77;22153;-59
2021/10/05 00:59:20;;;;;;;26.50;16.57;;;;;;;7.09;88.02;144003.16;1826029;77;22618;-59
2021/10/05 01:01:55;;;;;;;33.33;17.60;;;;;;;7.06;88.35;143995.66;1824122;77;22191;-58
2021/10/05 01:04:30;;;;;;;33.85;19.25;;;;;;;7.05;88.87;143991.94;1811099;77;22217;-58
2021/10/05 01:07:17;;;;;;;24.90;15.80;;;;;;;7.02;89.00;143985.69;1834155;77;22164;-65
2021/10/05 01:09:52;;;;;;;30.35;17.87;;;;;;;7.01;89.36;143983.16;1834828;77;22170;-60
2021/10/05 01:12:34;;;;;;;31.35;17.67;;;;;;;7.02;89.60;143985.69;1835049;77;22575;-61
2021/10/05 01:15:09;;;;;;;27.80;17.80;;;;;;;7.01;89.68;143983.16;1815668;77;28108;-61
2021/10/05 01:17:44;;;;;;;24.90;17.40;;;;;;;7.04;89.74;143990.66;1833977;77;22737;-60
2021/10/05 01:20:20;;;;;;;26.80;16.50;;;;;;;7.05;89.65;143993.19;1828015;77;22168;-60
2021/10/05 01:22:54;;;;;;;28.45;18.00;;;;;;;7.06;89.90;143995.66;1819424;77;27985;-60
2021/10/05 01:25:31;;;;;;;27.40;16.30;;;;;;;7.11;89.83;144008.17;1845794;77;22225;-64
2021/10/05 01:28:06;;;;;;;25.57;17.15;;;;;;;7.11;89.82;144006.92;1845919;77;22178;-60
2021/10/05 01:30:40;;;;;;;27.73;17.25;;;;;;;7.10;89.87;144004.45;1834074;77;22140;-61
2021/10/05 01:33:26;;;;;;;30.82;18.57;;;;;;;7.08;90.07;144000.67;1834175;77;22622;-58
2021/10/05 01:36:01;;;;;;;27.82;17.90;;;;;;;7.09;90.18;144001.92;1829914;77;22589;-57
2021/10/05 01:38:35;;;;;;;29.82;17.32;;;;;;;7.07;90.34;143998.19;1832566;77;22160;-60
2021/10/05 01:41:10;;;;;;;33.55;18.52;;;;;;;7.06;90.47;143994.42;1824505;77;22187;-63
2021/10/05 01:43:45;;;;;;;30.00;18.45;;;;;;;7.05;90.62;143993.19;1822407;77;22568;-63
2021/10/05 01:46:20;;;;;;;29.72;19.25;;;;;;;7.05;90.75;143993.19;1783556;79;22577;-59
2021/10/05 01:48:55;;;;;;;32.83;18.90;;;;;;;7.05;90.93;143993.19;1834934;77;22172;-55
2021/10/05 01:51:31;;;;;;;29.60;17.95;;;;;;;7.04;91.07;143989.41;1829734;77;22258;-59
2021/10/05 01:54:05;;;;;;;30.97;19.87;;;;;;;7.02;91.16;143985.69;1810703;77;28052;-60
2021/10/05 01:56:42;;;;;;;28.52;17.50;;;;;;;7.06;91.18;143994.42;1852390;77;22182;-62
2021/10/05 01:59:38;;;;;;;33.58;19.02;;;;;;;7.05;91.25;143993.19;1827278;77;22594;-59
2021/10/05 02:02:32;;;;;;;32.42;18.25;;;;;;;7.06;91.23;143994.42;1822015;77;22161;-59
2021/10/05 02:05:26;;;;;;;28.70;18.95;;;;;;;7.03;91.39;143988.17;1843391;78;22152;-61
2021/10/05 02:08:01;;;;;;;31.15;17.00;;;;;;;7.02;91.39;143985.69;1831131;77;22207;-61
2021/10/05 02:10:37;;;;;;;27.87;16.75;;;;;;;6.99;91.51;143978.16;1820652;77;22182;-58
2021/10/05 02:13:12;;;;;;;29.63;18.92;;;;;;;6.96;91.73;143970.66;1806532;77;28026;-58
2021/10/05 02:15:46;;;;;;;31.85;19.02;;;;;;;7.01;91.75;143981.91;1828522;77;22575;-61
2021/10/05 02:18:21;;;;;;;30.00;18.02;;;;;;;6.99;91.74;143978.16;1853538;77;22147;-65
2021/10/05 02:20:57;;;;;;;30.90;17.15;;;;;;;6.96;91.89;143970.66;1821341;77;22186;-63
2021/10/05 02:26:52;;;;;;;29.35;18.80;;;;;;;6.92;92.21;143960.63;1853519;77;22136;-66
2021/10/05 02:29:36;;;;;;;30.50;17.98;;;;;;;6.89;92.29;143953.14;1825983;77;22590;-60
2021/10/05 02:32:31;;;;;;;34.83;18.42;;;;;;;6.89;92.45;143953.14;1819918;77;22190;-61
2021/10/05 02:35:25;;;;;;;30.27;18.60;;;;;;;6.87;92.59;143948.12;1827719;77;22190;-60
2021/10/05 02:38:00;;;;;;;27.93;18.80;;;;;;;6.89;92.58;143953.14;1850362;77;22155;-60
2021/10/05 02:40:35;;;;;;;30.95;18.37;;;;;;;6.88;92.63;143951.89;1818321;77;22191;-63
2021/10/05 02:43:10;;;;;;;31.93;20.17;;;;;;;6.85;92.65;143943.16;1817443;77;22183;-59
2021/10/05 02:45:45;;;;;;;32.38;17.95;;;;;;;6.84;92.73;143940.63;1833098;77;22177;-61
2021/10/05 02:48:39;;;;;;;32.50;19.35;;;;;;;6.84;92.79;143940.63;1830193;77;22147;-57
2021/10/05 02:51:14;;;;;;;32.70;18.67;;;;;;;6.83;92.88;143938.16;1853575;77;22168;-58
2021/10/05 02:54:09;;;;;;;31.57;18.82;;;;;;;6.81;92.97;143933.14;1840051;77;22621;-59
2021/10/05 02:56:44;;;;;;;29.72;19.82;;;;;;;6.80;93.03;143930.66;1805149;78;28119;-58
2021/10/05 02:59:19;;;;;;;29.10;19.15;;;;;;;6.85;93.08;143943.16;1825710;77;22167;-58
2021/10/05 03:02:14;;;;;;;34.20;20.08;;;;;;;6.85;92.96;143943.16;1817243;77;22185;-61
2021/10/05 03:04:50;;;;;;;29.72;18.73;;;;;;;6.81;93.10;143934.38;1837787;77;28425;-60
2021/10/05 03:07:44;;;;;;;29.92;18.70;;;;;;;6.84;93.10;143940.63;1808105;77;22194;-66
2021/10/05 03:10:19;;;;;;;36.25;20.72;;;;;;;6.83;93.03;143938.16;1834955;77;22160;-60
2021/10/05 03:12:54;;;;;;;29.90;18.32;;;;;;;6.79;93.25;143929.37;1804523;77;22237;-61
2021/10/05 03:15:55;;;;;;;35.43;20.57;;;;;;;6.76;93.37;143920.64;1811485;77;22234;-60
2021/10/05 03:18:30;;;;;;;30.40;21.00;;;;;;;6.72;93.65;143911.91;1830352;77;22189;-59
2021/10/05 03:21:05;;;;;;;30.85;20.85;;;;;;;6.70;93.85;143908.12;1822369;77;22204;-59
2021/10/05 03:23:40;;;;;;;31.50;20.30;;;;;;;6.69;93.84;143904.38;1826134;77;22543;-60
2021/10/05 03:26:15;;;;;;;30.35;19.37;;;;;;;6.67;94.06;143900.64;1853535;77;22175;-63
2021/10/05 03:28:50;;;;;;;32.10;20.40;;;;;;;6.66;94.08;143898.13;1823664;77;22133;-62
2021/10/05 03:31:26;;;;;;;36.90;20.25;;;;;;;6.66;94.26;143898.13;1808692;77;22605;-61
2021/10/05 03:34:00;;;;;;;30.95;19.67;;;;;;;6.66;94.25;143896.88;1816861;77;22194;-60
2021/10/05 03:36:54;;;;;;;32.83;20.15;;;;;;;6.65;94.33;143894.39;1834903;77;22132;-59
2021/10/05 03:39:50;;;;;;;33.13;19.27;;;;;;;6.64;94.44;143891.86;1812615;77;22129;-62
2021/10/05 03:42:25;;;;;;;32.10;19.77;;;;;;;6.61;94.57;143885.61;1843330;77;22136;-68
2021/10/05 03:45:08;;;;;;;35.35;20.32;;;;;;;6.60;94.73;143883.13;1819993;77;22183;-74
2021/10/05 03:47:41;;;;;;;31.85;19.15;;;;;;;6.58;94.76;143878.13;1829196;77;22168;-70
2021/10/05 03:50:18;;;;;;;34.60;19.50;;;;;;;6.58;94.82;143878.13;1834019;77;22164;-70
2021/10/05 03:52:59;;;;;;;36.95;20.97;;;;;;;6.57;94.98;143874.41;1834378;77;22205;-72
2021/10/05 03:55:34;;;;;;;32.55;19.37;;;;;;;6.55;95.11;143869.39;1824437;77;22247;-75
2021/10/05 03:58:09;;;;;;;36.42;20.62;;;;;;;6.52;95.21;143864.38;1833403;77;22583;-72
2021/10/05 04:00:50;;;;;;;35.70;20.17;;;;;;;6.50;95.38;143858.13;1833414;77;22200;-72
2021/10/05 04:03:25;;;;;;;34.43;21.05;;;;;;;6.50;95.47;143859.38;1820300;77;22131;-76
2021/10/05 04:06:06;;;;;;;38.55;20.95;;;;;;;6.50;95.41;143858.13;1833380;77;22202;-74
2021/10/05 04:08:41;;;;;;;33.05;20.23;;;;;;;6.48;95.51;143853.13;1834247;77;22583;-73
2021/10/05 04:11:16;;;;;;;31.93;19.48;;;;;;;6.46;95.63;143848.11;1834604;77;22232;-73
2021/10/05 04:13:57;;;;;;;41.77;20.77;;;;;;;6.46;95.71;143849.41;1843152;78;22184;-74
2021/10/05 04:16:32;;;;;;;35.38;20.70;;;;;;;6.45;95.75;143845.63;1853509;77;22163;-73
2021/10/05 04:19:06;;;;;;;34.43;22.17;;;;;;;6.44;95.81;143844.39;1853536;77;22548;-70
2021/10/05 04:21:41;;;;;;;36.17;21.50;;;;;;;6.45;95.87;143845.63;1834967;77;22140;-73
2021/10/05 04:24:24;;;;;;;34.90;21.73;;;;;;;6.47;95.76;143850.64;1853531;77;22155;-73
2021/10/05 04:26:59;;;;;;;36.08;21.15;;;;;;;6.50;95.72;143858.13;1834973;77;22169;-70
2021/10/05 04:29:34;;;;;;;34.43;22.05;;;;;;;6.51;95.56;143860.61;1838764;77;22647;-68
2021/10/05 04:32:15;;;;;;;37.33;22.52;;;;;;;6.54;95.52;143868.16;1825803;77;22561;-69
2021/10/05 04:34:50;;;;;;;35.17;20.95;;;;;;;6.57;95.41;143875.64;1830314;77;22152;-72
2021/10/05 04:37:25;;;;;;;37.23;21.80;;;;;;;6.69;95.24;143905.66;1832759;77;22226;-66
2021/10/05 04:40:01;;;;;;;29.12;18.77;;;;;;;7.12;94.28;144010.70;1830929;77;22156;-67
2021/10/05 04:42:36;;;;;;;33.90;21.35;;;;;;;7.64;91.99;144135.78;1805587;77;28030;-63
2021/10/05 04:45:12;;;;;;;29.90;20.27;;;;;;;8.15;89.67;144260.94;1791756;77;28290;-66
2021/10/05 04:47:46;;;;;;;31.33;21.73;;;;;;;8.61;87.50;144373.66;1815521;77;22124;-65
2021/10/05 04:50:41;;;;;;;34.03;21.97;;;;;;;8.97;84.29;144461.31;1818363;77;22238;-66
2021/10/05 04:53:16;;;;;;;41.53;21.27;;;;;;;9.27;82.70;144536.48;1816892;77;22159;-67
2021/10/05 04:55:58;;;;;;;32.17;21.05;;;;;;;9.57;80.42;144609.17;1831240;77;22184;-67
2021/10/05 04:58:33;;;;;;;35.20;22.27;;;;;;;9.83;79.16;144671.84;1818267;77;22184;-66
2021/10/05 05:01:08;;;;;;;36.53;21.65;;;;;;;10.11;77.56;144742.03;1815060;77;22151;-66
2021/10/05 05:03:43;;;;;;;33.30;21.55;;;;;;;10.31;76.54;144789.75;1820882;77;22167;-64
2021/10/05 05:06:38;;;;;;;35.70;21.75;;;;;;;10.50;75.45;144836.13;1816707;77;22180;-67
2021/10/05 05:09:14;;;;;;;34.13;21.50;;;;;;;10.76;74.16;144900.08;1827571;77;22143;-67
2021/10/05 05:11:50;;;;;;;34.90;21.48;;;;;;;11.01;72.76;144961.56;1818042;77;22222;-65
2021/10/05 05:14:50;;;;;;;33.70;21.50;;;;;;;11.41;71.05;145060.70;1817377;77;22272;-66
2021/10/05 05:17:45;;;;;;;35.48;20.57;;;;;;;11.70;69.42;145130.98;1815864;77;22215;-67
2021/10/05 05:20:21;;;;;;;36.50;21.82;;;;;;;11.72;69.02;145137.25;1814507;77;22247;-65
2021/10/05 05:23:03;;;;;;;30.75;20.08;;;;;;;12.09;68.46;145226.48;1816541;77;22219;-68
2021/10/05 05:25:44;;;;;;;29.92;20.08;;;;;;;12.49;66.36;145324.41;1834324;77;22230;-65
2021/10/05 05:28:20;;;;;;;32.63;20.37;;;;;;;12.81;65.12;145403.58;1819910;77;22144;-68
2021/10/05 05:30:55;;;;;;;32.70;21.30;;;;;;;13.16;64.15;145490.28;1801400;77;38411;-63
2021/10/05 05:33:49;;;;;;;28.67;17.77;;;;;;;13.52;62.83;145578.33;1818550;77;22176;-65
2021/10/05 05:36:43;;;;;;;30.90;19.07;;;;;;;13.78;61.93;145641.19;1820827;77;22183;-65
2021/10/05 05:39:43;;;;;;;29.15;19.07;;;;;;;14.16;60.13;145735.50;1816224;77;22202;-66
2021/10/05 05:42:44;;;;;;;27.87;17.50;;;;;;;14.22;59.06;145750.63;1819709;77;22199;-67
2021/10/05 05:45:19;;;;;;;27.45;18.92;;;;;;;14.10;59.04;145721.67;1816278;77;28428;-64
2021/10/05 05:48:00;;;;;;;32.58;19.02;;;;;;;14.07;59.32;145714.14;1834140;77;22192;-68
2021/10/05 05:50:35;;;;;;;28.52;18.25;;;;;;;14.41;58.34;145797.14;1834983;77;22155;-68
2021/10/05 05:53:29;;;;;;;25.12;17.25;;;;;;;14.45;58.04;145807.22;1834962;77;22136;-66
2021/10/05 05:56:05;;;;;;;30.43;19.48;;;;;;;14.47;57.68;145812.22;1837815;77;28425;-67
2021/10/05 05:58:40;;;;;;;28.12;18.35;;;;;;;14.74;57.12;145877.72;1853530;77;22147;-66
2021/10/05 06:01:16;;;;;;;30.10;17.95;;;;;;;14.71;56.74;145870.19;1834901;77;22588;-66
2021/10/05 06:03:51;;;;;;;24.12;16.32;;;;;;;14.87;56.15;145910.44;1853610;77;22162;-70
2021/10/05 06:06:29;;;;;;;30.90;18.67;;;;;;;15.09;55.96;145964.56;1834955;77;22599;-68
2021/10/05 06:09:04;;;;;;;27.65;18.37;;;;;;;14.83;56.26;145900.34;1837684;77;28046;-69
2021/10/05 06:11:40;;;;;;;28.90;19.35;;;;;;;14.95;55.99;145930.56;1819618;77;28440;-68
2021/10/05 06:14:15;;;;;;;26.77;17.30;;;;;;;15.17;54.96;145984.69;1835063;77;22228;-70
2021/10/05 06:16:51;;;;;;;26.55;16.95;;;;;;;15.65;54.12;146101.80;1854119;77;22157;-69
2021/10/05 06:19:33;;;;;;;21.65;15.95;;;;;;;15.82;53.06;146144.66;1854296;77;22204;-68
2021/10/05 06:22:36;;;;;;;26.73;16.82;;;;;;;15.81;52.81;146142.13;1834336;77;22192;-67
2021/10/05 06:25:40;;;;;;;27.35;18.23;;;;;;;15.91;52.95;146164.81;1833769;77;22184;-67
2021/10/05 06:28:32;;;;;;;28.38;19.20;;;;;;;15.88;52.79;146157.25;1818666;77;28085;-67
2021/10/05 06:31:09;;;;;;;24.72;15.98;;;;;;;16.05;52.25;146201.34;1834968;77;22167;-66
2021/10/05 06:33:44;;;;;;;24.77;18.37;;;;;;;16.56;51.18;146324.77;1819278;77;28467;-67
2021/10/05 06:36:38;;;;;;;28.32;17.27;;;;;;;16.80;50.05;146384.06;1834970;77;22155;-68
2021/10/05 06:39:13;;;;;;;22.00;16.07;;;;;;;16.91;49.72;146413.03;1834999;77;22125;-68
2021/10/05 06:41:48;;;;;;;25.05;16.77;;;;;;;16.65;49.98;146347.47;1853546;77;22163;-67
2021/10/05 06:44:28;;;;;;;26.65;17.25;;;;;;;16.47;50.65;146303.38;1834112;77;22162;-67
2021/10/05 06:47:04;;;;;;;24.05;16.23;;;;;;;16.73;50.05;146366.37;1834982;77;22199;-68
2021/10/05 06:49:39;;;;;;;24.23;18.17;;;;;;;17.06;49.66;146448.34;1819342;77;28061;-68
2021/10/05 06:52:20;;;;;;;23.35;17.02;;;;;;;17.41;48.79;146535.33;1834157;77;22172;-67
2021/10/05 06:54:56;;;;;;;21.00;15.75;;;;;;;18.14;47.86;146715.75;1853519;77;22135;-67
2021/10/05 06:57:32;;;;;;;26.82;17.65;;;;;;;18.97;45.19;146918.94;1834804;77;22566;-67
2021/10/05 07:00:17;;;;;;;23.85;16.30;;;;;;;18.93;44.89;146910.12;1834138;77;22178;-66
2021/10/05 07:03:11;;;;;;;23.83;16.55;;;;;;;18.61;45.19;146830.55;1808716;77;22179;-68
2021/10/05 07:05:52;;;;;;;26.73;16.00;;;;;;;18.79;45.40;146874.77;1834209;77;22153;-66
2021/10/05 07:08:27;;;;;;;25.52;15.85;;;;;;;19.03;44.56;146935.38;1834987;77;22133;-66
2021/10/05 07:11:08;;;;;;;26.85;16.75;;;;;;;19.45;43.72;147037.63;1834086;77;22183;-67
2021/10/05 07:14:02;;;;;;;25.10;17.10;;;;;;;19.56;43.51;147064.13;1834952;77;22157;-68
2021/10/05 07:16:56;;;;;;;31.05;18.15;;;;;;;19.66;43.72;147090.64;1853668;77;22562;-67
2021/10/05 07:19:51;;;;;;;25.75;17.32;;;;;;;19.70;43.32;147099.56;1853460;77;22155;-66
2021/10/05 07:22:28;;;;;;;22.40;15.43;;;;;;;19.56;43.26;147064.13;1834737;77;22570;-67
2021/10/05 07:25:04;;;;;;;24.75;16.55;;;;;;;19.57;43.49;147067.94;1834950;77;22169;-69
2021/10/05 07:27:49;;;;;;;22.42;15.63;;;;;;;19.25;43.75;146988.38;1834748;77;22145;-68
2021/10/05 07:30:24;;;;;;;22.00;15.80;;;;;;;19.75;43.16;147110.92;1834935;77;22226;-67
2021/10/05 07:33:02;;;;;;;25.00;14.55;;;;;;;19.94;42.79;147160.16;1835035;77;22163;-67
2021/10/05 07:35:39;;;;;;;23.42;15.48;;;;;;;19.69;42.83;147097.00;1853517;77;22183;-68
2021/10/05 07:38:14;;;;;;;23.98;15.25;;;;;;;19.31;43.71;147003.55;1834994;77;22191;-67
2021/10/05 07:40:49;;;;;;;23.27;15.93;;;;;;;19.25;43.77;146989.63;1835026;77;22136;-66
2021/10/05 07:43:24;;;;;;;22.55;15.10;;;;;;;19.37;44.26;147017.42;1834882;77;22153;-68
2021/10/05 07:46:00;;;;;;;20.97;14.90;;;;;;;20.26;42.64;147237.25;1834985;77;22125;-67
2021/10/05 07:48:35;;;;;;;22.22;14.38;;;;;;;20.86;41.30;147385.12;1834910;77;22297;-68
2021/10/05 07:51:11;;;;;;;22.52;14.00;;;;;;;20.91;40.85;147397.77;1834903;77;22183;-68
2021/10/05 07:53:47;;;;;;;21.48;15.05;;;;;;;20.40;41.43;147272.59;1843419;77;22190;-68
2021/10/05 07:56:22;;;;;;;22.52;14.58;;;;;;;20.01;42.32;147176.59;1834999;77;22203;-67
2021/10/05 07:58:57;;;;;;;23.85;14.83;;;;;;;19.64;43.13;147084.31;1853395;77;22175;-67
2021/10/05 08:01:33;;;;;;;22.45;13.88;;;;;;;19.86;43.10;147138.69;1834963;77;22152;-67
2021/10/05 08:04:09;;;;;;;23.87;14.15;;;;;;;20.26;42.84;147237.25;1834873;77;22183;-67
2021/10/05 08:06:44;;;;;;;26.60;15.13;;;;;;;20.50;41.78;147297.88;1835017;77;22231;-68
2021/10/05 08:09:40;;;;;;;25.12;14.70;;;;;;;20.16;42.00;147214.48;1834747;77;22201;-67
2021/10/05 08:12:15;;;;;;;24.32;15.30;;;;;;;20.36;41.79;147262.52;1853524;77;22238;-67
2021/10/05 08:14:51;;;;;;;23.50;14.28;;;;;;;19.96;42.00;147163.97;1834917;77;22192;-66
2021/10/05 08:17:26;;;;;;;21.85;14.80;;;;;;;19.61;43.09;147078.00;1848145;78;22195;-67
2021/10/05 08:20:03;;;;;;;24.35;13.93;;;;;;;19.61;42.68;147076.75;1834981;77;22195;-67
2021/10/05 08:22:39;;;;;;;28.30;14.95;;;;;;;19.06;43.99;146941.69;1834726;77;22591;-66
2021/10/05 08:25:14;;;;;;;22.13;14.43;;;;;;;18.74;44.63;146863.34;1853656;77;22140;-66
2021/10/05 08:27:49;;;;;;;22.22;15.55;;;;;;;18.02;45.81;146684.20;1853524;77;22578;-67
2021/10/05 08:30:43;;;;;;;22.20;14.58;;;;;;;17.66;46.98;146595.88;1835023;77;22164;-67
2021/10/05 08:33:18;;;;;;;22.87;16.55;;;;;;;17.59;47.34;146579.47;1834941;77;22238;-68
2021/10/05 08:35:54;;;;;;;22.77;15.40;;;;;;;17.53;47.60;146564.34;1834901;77;22179;-66
2021/10/05 08:38:30;;;;;;;26.42;16.50;;;;;;;17.52;48.07;146563.06;1853476;77;22152;-66
2021/10/05 08:41:05;;;;;;;24.77;16.35;;;;;;;17.57;47.84;146575.66;1834979;77;22141;-67
2021/10/05 08:43:42;;;;;;;23.98;16.67;;;;;;;16.96;49.13;146423.12;1835061;77;22153;-66
2021/10/05 08:46:18;;;;;;;24.50;15.48;;;;;;;16.43;50.71;146294.52;1834832;77;23782;-66
2021/10/05 08:48:53;;;;;;;24.67;15.80;;;;;;;16.46;50.81;146300.81;1835201;77;22567;-66
2021/10/05 08:51:28;;;;;;;25.43;15.93;;;;;;;16.33;51.05;146268.06;1843529;77;22187;-66
2021/10/05 08:54:05;;;;;;;24.90;16.77;;;;;;;16.19;51.57;146235.33;1853482;77;22594;-66
2021/10/05 08:56:44;;;;;;;25.35;16.75;;;;;;;16.08;51.70;146207.64;1834846;77;22574;-66
2021/10/05 08:59:19;;;;;;;26.15;17.70;;;;;;;15.36;53.14;146031.25;1834949;77;22255;-67
2021/10/05 09:02:09;;;;;;;;;;;;;;;;;;;;;
2021/10/05 09:04:36;;;;;;;31.52;17.73;;;;;;;15.23;54.52;145997.28;1834990;77;22168;-66
2021/10/05 09:07:24;;;;;;;24.45;16.17;;;;;;;15.12;54.80;145970.86;1834943;77;22152;-66
2021/10/05 09:10:03;;;;;;;28.02;16.90;;;;;;;14.94;55.25;145928.06;1834935;77;22179;-67
2021/10/05 09:12:57;;;;;;;32.80;18.02;;;;;;;14.84;55.57;145901.64;1853570;77;22156;-66
2021/10/05 09:15:33;;;;;;;26.82;16.50;;;;;;;14.73;56.28;145875.19;1834991;77;22141;-66
2021/10/05 09:18:09;;;;;;;23.40;16.95;;;;;;;14.43;56.52;145802.19;1837725;77;28027;-65
2021/10/05 09:20:44;;;;;;;24.75;16.60;;;;;;;14.26;57.23;145760.66;1819426;77;28011;-66
2021/10/05 09:23:19;;;;;;;24.02;16.10;;;;;;;14.06;57.82;145711.59;1835004;77;22133;-66
2021/10/05 09:25:54;;;;;;;27.73;15.98;;;;;;;13.81;58.53;145648.72;1853597;77;22123;-66
2021/10/05 09:28:53;;;;;;;24.37;15.63;;;;;;;13.67;59.34;145616.03;1834163;77;22259;-66
2021/10/05 09:31:57;;;;;;;25.57;16.67;;;;;;;13.49;60.09;145569.55;1834719;77;22155;-67
2021/10/05 09:34:56;;;;;;;21.82;14.98;;;;;;;13.42;60.46;145553.19;1835014;77;22580;-67
2021/10/05 09:37:54;;;;;;;26.48;16.25;;;;;;;13.56;60.66;145587.11;1834746;77;22190;-67
2021/10/05 09:41:01;;;;;;;26.95;15.32;;;;;;;13.74;60.03;145631.11;1834880;77;22125;-66
2021/10/05 09:43:37;;;;;;;23.35;15.30;;;;;;;13.73;59.14;145628.61;1834852;77;22209;-66
2021/10/05 09:46:15;;;;;;;23.77;14.83;;;;;;;13.71;58.83;145623.58;1834974;77;22128;-67
2021/10/05 09:49:06;;;;;;;27.22;16.93;;;;;;;13.79;59.80;145644.98;1835046;77;22157;-67
2021/10/05 09:52:01;;;;;;;25.17;15.53;;;;;;;13.93;59.30;145677.66;1834810;77;22184;-65
2021/10/05 09:54:36;;;;;;;21.37;14.55;;;;;;;13.95;58.74;145683.94;1834859;77;22208;-67
2021/10/05 09:57:11;;;;;;;27.50;14.60;;;;;;;13.92;58.27;145675.13;1834963;77;22160;-66
2021/10/05 09:59:52;;;;;;;22.95;14.63;;;;;;;13.91;59.13;145673.88;1834156;77;22180;-67
2021/10/05 10:02:28;;;;;;;28.27;14.55;;;;;;;13.99;58.39;145694.03;1835557;77;22181;-65
2021/10/05 10:05:14;;;;;;;23.55;14.10;;;;;;;14.06;58.29;145711.59;1835252;77;22174;-67
2021/10/05 10:08:05;;;;;;;23.00;13.20;;;;;;;13.99;57.98;145694.03;1853638;77;22144;-66
2021/10/05 10:10:41;;;;;;;18.45;13.60;;;;;;;13.98;57.41;145691.48;1834986;77;22156;-65
2021/10/05 10:13:19;;;;;;;20.35;14.05;;;;;;;14.03;57.30;145704.06;1834979;77;22579;-66
2021/10/05 10:15:57;;;;;;;25.25;14.78;;;;;;;14.11;57.69;145724.17;1834993;77;22141;-67
2021/10/05 10:18:34;;;;;;;22.35;12.98;;;;;;;14.23;56.41;145751.88;1834790;77;22133;-66
2021/10/05 10:21:11;;;;;;;22.87;12.10;;;;;;;14.32;57.05;145774.48;1835061;77;22165;-66
2021/10/05 10:23:46;;;;;;;20.80;14.28;;;;;;;14.54;56.88;145829.89;1835015;77;22152;-66
2021/10/05 10:26:21;;;;;;;24.40;13.83;;;;;;;14.60;56.52;145842.47;1834984;77;22148;-65
2021/10/05 10:28:58;;;;;;;21.20;12.43;;;;;;;14.61;55.74;145845.02;1853588;77;22163;-66
2021/10/05 10:31:39;;;;;;;20.10;12.13;;;;;;;14.70;55.96;145867.64;1853601;77;22163;-67
2021/10/05 10:34:23;;;;;;;20.37;12.13;;;;;;;14.76;55.38;145882.77;1853556;77;22532;-66
2021/10/05 10:37:09;;;;;;;22.50;11.78;;;;;;;14.81;54.48;145895.34;1843441;77;22567;-66
2021/10/05 10:39:47;;;;;;;19.85;12.18;;;;;;;14.86;54.03;145907.94;1837794;77;28411;-66
2021/10/05 10:42:42;;;;;;;15.28;7.45;;;;;;;15.06;53.80;145957.03;1835020;77;22261;-66
2021/10/05 10:45:46;;;;;;;16.15;8.20;;;;;;;15.10;48.08;145965.81;1834975;77;22567;-67
2021/10/05 10:48:36;;;;;;;14.38;9.05;;;;;;;15.08;49.67;145960.77;1853508;77;22174;-66
2021/10/05 10:51:20;;;;;;;13.72;7.33;;;;;;;15.26;48.51;146006.08;1835007;77;22128;-66
2021/10/05 10:54:22;;;;;;;16.77;7.55;;;;;;;15.24;46.69;146001.08;1834957;77;22128;-67
2021/10/05 10:57:01;;;;;;;14.33;7.47;;;;;;;15.11;47.68;145968.31;1835015;77;22571;-67
2021/10/05 10:59:36;;;;;;;12.68;7.22;;;;;;;15.09;48.26;145963.31;1853568;77;22157;-66
2021/10/05 11:02:10;;;;;;;13.45;7.50;;;;;;;15.28;48.21;146011.13;1853551;77;22167;-67
2021/10/05 11:04:46;;;;;;;17.92;8.13;;;;;;;15.44;47.86;146048.89;1834947;77;22245;-65
2021/10/05 11:07:26;;;;;;;15.95;7.62;;;;;;;15.50;47.90;146065.28;1853499;77;22128;-66
2021/10/05 11:10:01;;;;;;;12.98;7.42;;;;;;;15.48;46.99;146058.97;1853607;77;22163;-67
2021/10/05 11:13:00;;;;;;;11.28;7.83;;;;;;;15.53;47.17;146071.56;1853492;77;22160;-66
2021/10/05 11:15:40;;;;;;;15.45;8.10;;;;;;;15.62;47.63;146094.20;1834961;77;22156;-66
2021/10/05 11:18:18;;;;;;;13.05;8.15;;;;;;;15.45;47.46;146051.44;1835019;77;22153;-66
2021/10/05 11:20:57;;;;;;;14.33;8.20;;;;;;;15.37;47.49;146033.80;1843386;77;22156;-66
2021/10/05 11:23:43;;;;;;;19.30;7.28;;;;;;;15.28;48.02;146009.88;1834972;77;22157;-66
2021/10/05 11:26:42;;;;;;;13.45;7.47;;;;;;;15.35;47.15;146028.75;1834928;77;22713;-66
2021/10/05 11:29:37;;;;;;;20.80;8.00;;;;;;;15.53;47.13;146071.56;1853625;77;22160;-68
2021/10/05 11:32:32;;;;;;;12.10;7.37;;;;;;;15.69;47.39;146111.89;1835050;77;22124;-66
2021/10/05 11:35:07;;;;;;;15.93;6.75;;;;;;;15.60;46.30;146089.20;1834957;77;22160;-66
2021/10/05 11:37:42;;;;;;;12.37;7.58;;;;;;;15.57;46.89;146082.91;1834973;77;22161;-68
2021/10/05 11:40:17;;;;;;;14.05;8.60;;;;;;;15.73;47.03;146121.98;1834996;77;22128;-66
2021/10/05 11:43:13;;;;;;;14.68;7.47;;;;;;;15.86;47.16;146153.47;1834781;77;22222;-66
2021/10/05 11:45:48;;;;;;;13.45;7.33;;;;;;;15.92;47.24;146167.31;1853533;77;22123;-67
2021/10/05 11:48:42;;;;;;;11.95;8.10;;;;;;;16.17;46.81;146229.03;1879196;75;22262;-67
2021/10/05 11:51:20;;;;;;;10.82;7.33;;;;;;;16.44;46.79;146295.81;1853497;77;22156;-66
2021/10/05 11:53:58;;;;;;;19.05;7.47;;;;;;;16.55;45.78;146323.52;1853508;77;22155;-66
2021/10/05 11:56:32;;;;;;;12.68;7.53;;;;;;;16.65;45.43;146348.72;1853484;77;22128;-66
2021/10/05 11:59:10;;;;;;;12.13;6.83;;;;;;;16.64;44.72;146344.97;1834838;77;22179;-67
2021/10/05 12:01:45;;;;;;;13.35;6.83;;;;;;;16.54;44.32;146321.02;1853555;77;22158;-67
2021/10/05 12:04:28;;;;;;;10.75;6.40;;;;;;;16.53;44.90;146318.47;1834122;77;22152;-66
2021/10/05 12:07:13;;;;;;;9.58;6.03;;;;;;;16.58;42.85;146331.06;1834936;77;22140;-67
2021/10/05 12:09:59;;;;;;;8.98;6.10;;;;;;;16.33;43.59;146268.06;1834989;77;22152;-67
2021/10/05 12:12:53;;;;;;;10.58;6.40;;;;;;;15.93;45.34;146169.84;1853476;77;22128;-67
2021/10/05 12:15:30;;;;;;;11.50;5.20;;;;;;;15.82;45.61;146144.66;1853466;77;22570;-66
2021/10/05 12:18:07;;;;;;;13.25;6.37;;;;;;;15.58;45.81;146085.41;1853425;77;20103;-66